createdAt,value
2019-03-20T00:01:27.858Z,78.2
2019-03-20T00:11:26.333Z,95.9
2019-03-20T00:21:27.133Z,90.7
2019-03-20T00:31:28.654Z,127.2
2019-03-20T00:41:28.441Z,98.5
2019-03-20T00:51:27.890Z,83.3
2019-03-20T01:01:27.510Z,108.0
2019-03-20T01:11:27.556Z,103.8
2019-03-20T01:21:27.189Z,105.8
2019-03-20T01:31:27.699Z,108.7
2019-03-20T01:41:26.221Z,95.9
2019-03-20T01:51:27.100Z,104.0
2019-03-20T02:01:28.082Z,106.8
2019-03-20T02:11:28.668Z,132.2
2019-03-20T02:21:26.764Z,137.5
2019-03-20T02:31:26.651Z,134.3
2019-03-20T02:41:27.861Z,131.1
2019-03-20T02:51:26.629Z,146.5
2019-03-20T03:01:28.114Z,149.0
2019-03-20T03:11:26.694Z,142.3
2019-03-20T03:21:26.516Z,130.6
2019-03-20T03:31:27.739Z,155.6
2019-03-20T03:41:26.348Z,150.2
2019-03-20T03:51:26.463Z,154.0
2019-03-20T04:01:28.286Z,143.6
2019-03-20T04:11:28.124Z,152.1
2019-03-20T04:21:27.213Z,128.4
2019-03-20T04:31:26.747Z,142.8
2019-03-20T04:41:27.225Z,155.1
2019-03-20T04:51:26.940Z,135.3
2019-03-20T05:01:27.819Z,150.9
2019-03-20T05:11:28.592Z,159.1
2019-03-20T05:21:26.771Z,157.3
2019-03-20T05:31:26.381Z,183.2
2019-03-20T05:41:28.306Z,172.8
2019-03-20T05:51:26.833Z,190.4
2019-03-20T06:01:26.440Z,172.9
2019-03-20T06:11:27.054Z,168.2
2019-03-20T06:21:28.486Z,168.4
2019-03-20T06:31:27.047Z,156.1
2019-03-20T06:41:27.517Z,163.1
2019-03-20T06:51:27.198Z,160.9
2019-03-20T07:01:26.600Z,147.3
2019-03-20T07:11:27.165Z,146.8
2019-03-20T07:21:27.006Z,150.9
2019-03-20T07:31:37.878Z,132.6
2019-03-20T07:41:27.020Z,124.3
2019-03-20T07:51:28.437Z,120.6
2019-03-20T08:01:27.529Z,119.3
2019-03-20T08:11:28.208Z,111.6
2019-03-20T08:21:27.227Z,107.1
2019-03-20T08:31:27.709Z,99.1
2019-03-20T08:41:26.954Z,88.6
2019-03-20T08:51:26.986Z,81.7
2019-03-20T09:01:29.661Z,65.4
2019-03-20T09:11:27.660Z,67.9
2019-03-20T09:21:26.535Z,38.3
2019-03-20T09:31:27.697Z,34.8
2019-03-20T09:41:26.214Z,18.2
2019-03-20T09:51:27.530Z,19.1
2019-03-20T10:01:27.442Z,25.6
2019-03-20T10:11:27.122Z,19.6
2019-03-20T10:21:27.493Z,19.9
2019-03-20T10:31:27.513Z,19.1
2019-03-20T10:41:27.551Z,24.4
2019-03-20T10:51:27.229Z,19.0
2019-03-20T11:01:27.175Z,19.6
2019-03-20T11:11:29.088Z,15.5
2019-03-20T11:21:26.935Z,16.9
2019-03-20T11:31:26.851Z,17.3
2019-03-20T11:41:26.534Z,17.0
2019-03-20T11:51:26.873Z,15.1
2019-03-20T12:01:26.523Z,13.2
2019-03-20T12:11:27.678Z,12.7
2019-03-20T12:21:26.929Z,15.7
2019-03-20T12:31:26.872Z,22.2
2019-03-20T12:41:26.880Z,20.1
2019-03-20T12:51:26.529Z,18.9
2019-03-20T13:01:27.217Z,18.7
2019-03-20T13:11:26.856Z,14.9
2019-03-20T13:21:32.342Z,13.6
2019-03-20T13:31:26.977Z,18.7
2019-03-20T13:41:26.838Z,17.9
2019-03-20T13:51:27.120Z,17.8
2019-03-20T14:01:27.354Z,26.0
2019-03-20T14:11:27.411Z,17.4
2019-03-20T14:21:27.354Z,17.9
2019-03-20T14:31:27.121Z,15.5
2019-03-20T14:41:27.421Z,19.6
2019-03-20T14:51:27.196Z,18.8
2019-03-20T15:01:27.972Z,19.2
2019-03-20T15:11:27.081Z,19.8
2019-03-20T15:21:26.812Z,17.6
2019-03-20T15:31:26.428Z,20.8
2019-03-20T15:41:28.801Z,17.7
2019-03-20T15:51:27.577Z,18.6
2019-03-20T16:01:27.610Z,14.9
2019-03-20T16:11:27.860Z,17.6
2019-03-20T16:21:26.677Z,20.1
2019-03-20T16:31:28.458Z,23.3
2019-03-20T16:41:27.083Z,17.5
2019-03-20T16:51:26.823Z,19.6
2019-03-20T17:01:26.527Z,26.3
2019-03-20T17:11:38.804Z,26.8
2019-03-20T17:21:27.926Z,34.4
2019-03-20T17:31:27.626Z,23.7
2019-03-20T17:41:37.035Z,37.4
2019-03-20T17:51:27.195Z,30.1
2019-03-20T18:01:27.180Z,24.6
2019-03-20T18:11:27.237Z,19.0
2019-03-20T18:21:27.198Z,24.3
2019-03-20T18:31:26.882Z,40.9
2019-03-20T18:41:26.676Z,33.4
2019-03-20T18:51:27.099Z,37.6
2019-03-20T19:01:26.962Z,34.9
2019-03-20T19:11:26.670Z,41.0
2019-03-20T19:21:26.969Z,54.1
2019-03-20T19:31:26.733Z,45.5
2019-03-20T19:41:26.765Z,36.7
2019-03-20T19:51:27.028Z,41.4
2019-03-20T20:01:27.734Z,50.6
2019-03-20T20:11:26.713Z,53.7
2019-03-20T20:21:28.080Z,56.5
2019-03-20T20:31:26.592Z,78.6
2019-03-20T20:41:26.347Z,83.8
2019-03-20T20:51:27.438Z,84.4
2019-03-20T21:01:30.790Z,65.4
2019-03-20T21:11:26.409Z,86.5
2019-03-20T21:21:27.540Z,69.1
2019-03-20T21:31:29.599Z,73.0
2019-03-20T21:41:27.268Z,95.7
2019-03-20T21:51:26.906Z,100.0
2019-03-20T22:01:26.572Z,106.7
2019-03-20T22:11:28.090Z,113.6
2019-03-20T22:21:30.819Z,114.7
2019-03-20T22:31:26.435Z,132.4
2019-03-20T22:41:27.081Z,146.7
2019-03-20T22:51:26.675Z,129.2
2019-03-20T23:01:27.394Z,131.4
2019-03-20T23:11:28.602Z,150.2
2019-03-20T23:21:27.202Z,144.6
2019-03-20T23:31:27.789Z,134.3
2019-03-20T23:41:26.560Z,130.9
2019-03-20T23:51:28.276Z,137.8
